createdAt,value
2019-04-21T00:01:59.653Z,10.90
2019-04-21T00:04:38.110Z,10.75
2019-04-21T00:07:21.760Z,10.63
2019-04-21T00:09:54.927Z,10.62
2019-04-21T00:12:18.090Z,10.61
2019-04-21T00:14:39.611Z,10.61
2019-04-21T00:17:06.156Z,10.57
2019-04-21T00:19:34.948Z,10.54
2019-04-21T00:22:17.808Z,10.53
2019-04-21T00:24:44.434Z,10.53
2019-04-21T00:27:21.412Z,10.52
2019-04-21T00:29:47.912Z,10.51
2019-04-21T00:32:17.893Z,10.50
2019-04-21T00:34:32.157Z,10.39
2019-04-21T00:37:12.245Z,10.30
2019-04-21T00:42:18.164Z,10.14
2019-04-21T00:44:44.898Z,10.06
2019-04-21T00:47:24.129Z,9.94
2019-04-21T00:49:59.082Z,9.90
2019-04-21T00:55:23.041Z,9.90
2019-04-21T01:00:18.612Z,9.80
2019-04-21T01:02:52.556Z,9.78
2019-04-21T01:05:18.647Z,9.74
2019-04-21T01:07:42.384Z,9.73
2019-04-21T01:10:06.367Z,9.74
2019-04-21T01:12:43.395Z,9.68
2019-04-21T01:15:22.713Z,9.60
2019-04-21T01:17:48.361Z,9.57
2019-04-21T01:20:09.682Z,9.54
2019-04-21T01:22:23.131Z,9.49
2019-04-21T01:25:01.661Z,9.41
2019-04-21T01:27:41.891Z,9.35
2019-04-21T01:30:14.413Z,9.29
2019-04-21T01:32:47.078Z,9.30
2019-04-21T01:35:15.039Z,9.30
2019-04-21T01:37:51.621Z,9.28
2019-04-21T01:40:21.260Z,9.27
2019-04-21T01:42:45.951Z,9.25
2019-04-21T01:45:09.365Z,9.21
2019-04-21T01:47:40.846Z,9.13
2019-04-21T01:50:02.882Z,9.04
2019-04-21T01:52:50.310Z,8.98
2019-04-21T01:55:23.463Z,8.94
2019-04-21T01:57:49.335Z,8.91
2019-04-21T02:00:21.358Z,8.88
2019-04-21T02:03:12.934Z,8.83
2019-04-21T02:05:32.931Z,8.80
2019-04-21T02:07:54.713Z,8.79
2019-04-21T02:10:35.200Z,8.79
2019-04-21T02:12:56.791Z,8.78
2019-04-21T02:15:36.051Z,8.80
2019-04-21T02:18:04.036Z,8.80
2019-04-21T02:20:24.408Z,8.79
2019-04-21T02:23:19.944Z,8.75
2019-04-21T02:25:31.709Z,8.75
2019-04-21T02:28:03.236Z,8.74
2019-04-21T02:30:47.504Z,8.72
2019-04-21T02:33:19.628Z,8.66
2019-04-21T02:35:52.769Z,8.64
2019-04-21T02:40:44.976Z,8.58
2019-04-21T02:48:34.446Z,8.51
2019-04-21T02:50:52.825Z,8.36
2019-04-21T02:53:20.483Z,8.43
2019-04-21T02:58:32.769Z,8.34
2019-04-21T03:01:03.277Z,8.31
2019-04-21T03:03:36.380Z,8.30
2019-04-21T03:06:20.325Z,8.27
2019-04-21T03:08:56.687Z,8.22
2019-04-21T03:13:50.747Z,8.16
2019-04-21T03:18:52.461Z,8.11
2019-04-21T03:21:16.427Z,8.11
2019-04-21T03:23:57.541Z,7.04
2019-04-21T03:31:36.104Z,7.88
2019-04-21T03:36:42.896Z,7.73
2019-04-21T03:38:40.334Z,7.65
2019-04-21T03:46:16.396Z,7.67
2019-04-21T03:51:21.374Z,7.63
2019-04-21T03:53:48.104Z,7.57
2019-04-21T03:56:45.233Z,7.57
2019-04-21T03:58:54.129Z,7.54
2019-04-21T04:01:28.488Z,7.59
2019-04-21T04:04:16.002Z,7.57
2019-04-21T04:06:43.242Z,7.53
2019-04-21T04:09:26.443Z,7.58
2019-04-21T04:14:26.617Z,7.56
2019-04-21T04:19:30.928Z,7.46
2019-04-21T04:22:00.877Z,7.44
2019-04-21T04:24:30.195Z,7.46
2019-04-21T04:29:24.088Z,7.47
2019-04-21T04:44:57.091Z,7.49
2019-04-21T04:47:24.392Z,7.53
2019-04-21T04:52:32.514Z,7.65
2019-04-21T04:57:33.892Z,7.78
2019-04-21T05:07:23.147Z,7.90
2019-04-21T05:09:47.049Z,7.94
2019-04-21T05:12:12.047Z,8.02
2019-04-21T05:14:46.665Z,8.09
2019-04-21T05:19:59.377Z,8.34
2019-04-21T05:22:17.317Z,8.48
2019-04-21T05:24:33.812Z,8.70
2019-04-21T05:27:02.848Z,8.91
2019-04-21T05:29:49.118Z,9.12
2019-04-21T05:32:20.072Z,9.29
2019-04-21T05:34:50.395Z,9.45
2019-04-21T05:37:20.082Z,9.63
2019-04-21T05:39:49.514Z,9.78
2019-04-21T05:42:10.493Z,9.89
2019-04-21T05:44:58.144Z,10.02
2019-04-21T05:47:35.528Z,10.16
2019-04-21T05:49:55.462Z,10.23
2019-04-21T05:52:23.191Z,10.38
2019-04-21T05:57:28.816Z,10.59
2019-04-21T05:59:56.098Z,10.77
2019-04-21T06:02:44.095Z,10.93
2019-04-21T06:07:28.778Z,11.21
2019-04-21T06:09:59.773Z,11.37
2019-04-21T06:12:29.811Z,11.52
2019-04-21T06:15:15.268Z,11.60
2019-04-21T06:20:00.131Z,11.81
2019-04-21T06:22:23.785Z,12.09
2019-04-21T06:30:09.948Z,12.62
2019-04-21T06:35:20.708Z,12.72
2019-04-21T06:40:28.737Z,13.05
2019-04-21T06:42:35.379Z,13.35
2019-04-21T06:45:05.974Z,13.62
2019-04-21T06:47:47.303Z,13.88
2019-04-21T06:50:00.159Z,13.94
2019-04-21T06:52:47.247Z,13.85
2019-04-21T06:55:12.589Z,13.88
2019-04-21T06:57:35.454Z,14.01
2019-04-21T07:00:04.291Z,14.04
2019-04-21T07:02:43.897Z,14.16
2019-04-21T07:05:24.694Z,14.27
2019-04-21T07:07:41.864Z,14.41
2019-04-21T07:10:10.679Z,14.50
2019-04-21T07:12:34.323Z,14.45
2019-04-21T07:15:04.021Z,14.60
2019-04-21T07:17:32.549Z,14.55
2019-04-21T07:20:10.124Z,14.74
2019-04-21T07:22:40.158Z,14.87
2019-04-21T07:25:09.189Z,14.73
2019-04-21T07:27:35.097Z,14.81
2019-04-21T07:30:11.693Z,14.88
2019-04-21T07:32:34.866Z,14.94
2019-04-21T07:37:38.083Z,14.84
2019-04-21T07:39:58.683Z,14.62
2019-04-21T07:42:32.794Z,14.55
2019-04-21T07:44:59.336Z,14.56
2019-04-21T07:47:53.134Z,14.51
2019-04-21T07:50:24.802Z,14.43
2019-04-21T07:57:42.920Z,14.34
2019-04-21T08:00:29.364Z,14.34
2019-04-21T08:02:54.029Z,14.30
2019-04-21T08:07:57.774Z,14.29
2019-04-21T08:10:22.955Z,14.34
2019-04-21T08:12:48.141Z,14.37
2019-04-21T08:17:57.813Z,14.46
2019-04-21T08:20:24.072Z,14.61
2019-04-21T08:22:58.923Z,14.65
2019-04-21T08:25:22.003Z,14.68
2019-04-21T08:27:53.950Z,14.72
2019-04-21T08:30:31.982Z,14.78
2019-04-21T08:38:03.535Z,15.00
2019-04-21T08:40:33.173Z,15.03
2019-04-21T08:43:20.579Z,15.08
2019-04-21T08:45:36.847Z,15.16
2019-04-21T08:48:00.963Z,15.28
2019-04-21T08:50:32.804Z,15.36
2019-04-21T08:53:02.330Z,15.51
2019-04-21T08:55:58.020Z,15.73
2019-04-21T09:01:20.876Z,15.79
2019-04-21T09:03:55.034Z,15.79
2019-04-21T09:09:01.627Z,15.91
2019-04-21T09:11:24.067Z,16.39
2019-04-21T09:13:56.683Z,16.58
2019-04-21T09:16:20.825Z,16.58
2019-04-21T09:18:48.701Z,16.59
2019-04-21T09:21:26.898Z,16.65
2019-04-21T09:23:58.971Z,16.75
2019-04-21T09:26:25.312Z,16.99
2019-04-21T09:28:48.322Z,16.96
2019-04-21T09:31:07.156Z,16.92
2019-04-21T09:33:41.255Z,17.10
2019-04-21T09:36:11.315Z,17.08
2019-04-21T09:38:41.555Z,17.07
2019-04-21T09:41:15.508Z,17.06
2019-04-21T09:43:43.670Z,17.20
2019-04-21T09:46:08.331Z,17.40
2019-04-21T09:48:49.166Z,17.65
2019-04-21T09:51:07.000Z,17.67
2019-04-21T09:53:38.760Z,17.69
2019-04-21T09:56:13.144Z,17.70
2019-04-21T09:58:40.769Z,17.68
2019-04-21T10:01:15.973Z,17.68
2019-04-21T10:03:41.396Z,17.87
2019-04-21T10:06:06.697Z,17.86
2019-04-21T10:08:36.309Z,17.95
2019-04-21T10:11:05.393Z,18.17
2019-04-21T10:13:34.001Z,18.26
2019-04-21T10:16:17.467Z,18.32
2019-04-21T10:18:46.142Z,18.37
2019-04-21T10:21:15.451Z,18.32
2019-04-21T10:23:43.944Z,18.33
2019-04-21T10:26:12.713Z,18.42
2019-04-21T10:28:41.352Z,18.37
2019-04-21T10:31:10.929Z,18.44
2019-04-21T10:33:39.943Z,18.60
2019-04-21T10:36:08.932Z,18.51
2019-04-21T10:38:43.204Z,18.48
2019-04-21T10:41:07.714Z,18.47
2019-04-21T10:43:37.220Z,18.53
2019-04-21T10:46:06.601Z,18.76
2019-04-21T10:48:36.772Z,18.75
2019-04-21T10:51:05.460Z,18.78
2019-04-21T10:53:36.716Z,18.74
2019-04-21T10:56:16.959Z,18.78
2019-04-21T10:58:38.177Z,18.86
2019-04-21T11:01:14.422Z,18.85
2019-04-21T11:03:44.852Z,18.77
2019-04-21T11:06:15.009Z,18.97
2019-04-21T11:08:47.573Z,19.05
2019-04-21T11:11:14.129Z,19.11
2019-04-21T11:13:44.201Z,19.36
2019-04-21T11:16:13.110Z,19.43
2019-04-21T11:18:42.096Z,19.45
2019-04-21T11:21:11.095Z,19.48
2019-04-21T11:23:40.525Z,19.42
2019-04-21T11:26:09.914Z,19.32
2019-04-21T11:28:38.910Z,19.33
2019-04-21T11:31:08.922Z,19.34
2019-04-21T11:33:37.698Z,19.36
2019-04-21T11:36:07.016Z,19.47
2019-04-21T11:38:57.105Z,19.59
2019-04-21T11:41:14.008Z,19.59
2019-04-21T11:43:43.257Z,19.52
2019-04-21T11:46:12.739Z,19.47
2019-04-21T11:48:42.110Z,19.49
2019-04-21T11:51:11.040Z,19.54
2019-04-21T11:53:39.408Z,19.55
2019-04-21T11:56:08.917Z,19.59
2019-04-21T11:58:37.351Z,19.66
2019-04-21T12:01:07.546Z,19.75
2019-04-21T12:03:36.075Z,19.70
2019-04-21T12:06:05.800Z,19.90
2019-04-21T12:08:40.398Z,19.90
2019-04-21T12:11:05.295Z,19.87
2019-04-21T12:13:34.221Z,19.83
2019-04-21T12:16:03.147Z,19.87
2019-04-21T12:18:32.471Z,19.78
2019-04-21T12:21:03.142Z,19.75
2019-04-21T12:23:32.351Z,19.83
2019-04-21T12:26:01.260Z,19.83
2019-04-21T12:28:30.238Z,20.02
2019-04-21T12:30:59.934Z,20.01
2019-04-21T12:33:34.154Z,20.02
2019-04-21T12:36:03.887Z,20.02
2019-04-21T12:38:42.537Z,19.97
2019-04-21T12:41:02.507Z,20.14
2019-04-21T12:43:30.887Z,20.22
2019-04-21T12:46:00.085Z,20.18
2019-04-21T12:48:29.693Z,20.23
2019-04-21T12:50:59.681Z,20.43
2019-04-21T12:53:29.593Z,20.46
2019-04-21T12:55:58.098Z,20.41
2019-04-21T12:58:26.546Z,20.27
2019-04-21T13:00:54.940Z,20.18
2019-04-21T13:03:24.824Z,20.19
2019-04-21T13:05:53.779Z,20.42
2019-04-21T13:08:22.198Z,20.42
2019-04-21T13:10:51.942Z,20.48
2019-04-21T13:13:20.349Z,20.50
2019-04-21T13:15:49.388Z,20.54
2019-04-21T13:18:18.481Z,20.59
2019-04-21T13:20:46.899Z,20.75
2019-04-21T13:23:16.647Z,20.77
2019-04-21T13:25:45.790Z,20.66
2019-04-21T13:28:14.638Z,20.67
2019-04-21T13:30:44.328Z,20.67
2019-04-21T13:33:13.322Z,20.62
2019-04-21T13:35:41.918Z,20.56
2019-04-21T13:38:19.881Z,20.51
2019-04-21T13:40:57.013Z,20.57
2019-04-21T13:43:12.582Z,20.65
2019-04-21T13:45:41.689Z,20.72
2019-04-21T13:48:10.580Z,20.79
2019-04-21T13:50:39.447Z,20.68
2019-04-21T13:53:09.043Z,20.78
2019-04-21T13:55:38.840Z,20.69
2019-04-21T13:58:08.559Z,20.68
2019-04-21T14:00:37.992Z,20.76
2019-04-21T14:03:07.111Z,20.94
2019-04-21T14:05:36.129Z,20.89
2019-04-21T14:08:05.156Z,20.96
2019-04-21T14:10:33.618Z,21.03
2019-04-21T14:13:02.589Z,20.91
2019-04-21T14:15:32.323Z,20.92
2019-04-21T14:18:00.788Z,20.93
2019-04-21T14:20:29.206Z,20.85
2019-04-21T14:23:10.089Z,20.79
2019-04-21T14:25:27.972Z,20.77
2019-04-21T14:27:57.731Z,20.96
2019-04-21T14:30:26.591Z,21.04
2019-04-21T14:32:56.212Z,21.00
2019-04-21T14:35:25.179Z,20.89
2019-04-21T14:37:53.645Z,20.78
2019-04-21T14:40:25.805Z,20.74
2019-04-21T14:42:53.987Z,20.79
2019-04-21T14:45:28.211Z,20.82
2019-04-21T14:48:02.828Z,20.80
2019-04-21T14:50:42.258Z,20.76
2019-04-21T14:53:16.060Z,20.73
2019-04-21T14:55:45.828Z,20.71
2019-04-21T14:58:14.987Z,20.69
2019-04-21T15:00:55.699Z,20.67
2019-04-21T15:03:25.702Z,20.69
2019-04-21T15:05:55.688Z,20.71
2019-04-21T15:08:25.010Z,20.83
2019-04-21T15:10:54.821Z,20.84
2019-04-21T15:13:23.725Z,20.80
2019-04-21T15:15:52.252Z,20.83
2019-04-21T15:18:21.033Z,20.84
2019-04-21T15:20:50.518Z,20.85
2019-04-21T15:23:20.421Z,20.78
2019-04-21T15:25:50.280Z,20.77
2019-04-21T15:28:19.978Z,20.83
2019-04-21T15:30:48.431Z,20.83
2019-04-21T15:33:18.158Z,20.90
2019-04-21T15:35:47.007Z,20.92
2019-04-21T15:38:16.023Z,20.96
2019-04-21T15:40:50.567Z,20.95
2019-04-21T15:43:14.811Z,21.01
2019-04-21T15:45:44.286Z,21.09
2019-04-21T15:48:14.017Z,21.05
2019-04-21T15:50:42.409Z,21.08
2019-04-21T15:53:13.781Z,20.98
2019-04-21T15:55:59.206Z,20.94
2019-04-21T15:58:32.443Z,20.88
2019-04-21T16:01:12.300Z,20.91
2019-04-21T16:03:40.746Z,20.90
2019-04-21T16:06:09.675Z,20.85
2019-04-21T16:08:39.541Z,20.87
2019-04-21T16:11:10.832Z,20.87
2019-04-21T16:13:39.563Z,20.85
2019-04-21T16:16:08.510Z,20.79
2019-04-21T16:18:38.570Z,20.77
2019-04-21T16:21:08.332Z,20.75
2019-04-21T16:23:38.215Z,20.76
2019-04-21T16:26:06.725Z,20.74
2019-04-21T16:28:35.221Z,20.66
2019-04-21T16:31:04.620Z,20.63
2019-04-21T16:33:33.437Z,20.60
2019-04-21T16:36:02.094Z,20.59
2019-04-21T16:38:31.457Z,20.56
2019-04-21T16:41:04.706Z,20.53
2019-04-21T16:43:31.151Z,20.54
2019-04-21T16:45:59.525Z,20.58
2019-04-21T16:48:27.924Z,20.66
2019-04-21T16:50:57.510Z,20.64
2019-04-21T16:53:30.285Z,20.59
2019-04-21T16:56:02.789Z,20.54
2019-04-21T16:58:38.927Z,20.49
2019-04-21T17:01:15.985Z,20.49
2019-04-21T17:03:42.452Z,20.48
2019-04-21T17:06:11.213Z,20.47
2019-04-21T17:08:40.889Z,20.10
2019-04-21T17:11:17.293Z,20.42
2019-04-21T17:13:39.840Z,20.40
2019-04-21T17:16:36.468Z,20.38
2019-04-21T17:18:51.375Z,20.34
2019-04-21T17:21:10.397Z,20.31
2019-04-21T17:23:38.654Z,20.24
2019-04-21T17:26:07.027Z,20.15
2019-04-21T17:28:36.377Z,20.06
2019-04-21T17:31:04.874Z,20.01
2019-04-21T17:33:33.888Z,20.01
2019-04-21T17:36:04.983Z,20.00
2019-04-21T17:38:34.240Z,20.02
2019-04-21T17:41:14.278Z,20.13
2019-04-21T17:43:33.856Z,20.13
2019-04-21T17:46:02.800Z,20.13
2019-04-21T17:48:32.389Z,20.14
2019-04-21T17:51:03.428Z,20.22
2019-04-21T17:53:43.276Z,20.19
2019-04-21T17:56:29.825Z,20.14
2019-04-21T17:59:01.529Z,19.99
2019-04-21T18:01:30.530Z,19.89
2019-04-21T18:04:04.430Z,19.81
2019-04-21T18:06:30.921Z,19.66
2019-04-21T18:09:08.955Z,19.62
2019-04-21T18:11:29.039Z,19.57
2019-04-21T18:13:42.122Z,19.49
2019-04-21T18:16:22.983Z,19.38
2019-04-21T18:18:41.151Z,19.32
2019-04-21T18:21:14.545Z,19.23
2019-04-21T18:23:54.228Z,19.21
2019-04-21T18:26:24.730Z,19.14
2019-04-21T18:28:44.950Z,19.08
2019-04-21T18:31:14.673Z,18.99
2019-04-21T18:33:46.186Z,18.93
2019-04-21T18:36:25.010Z,18.56
2019-04-21T18:39:18.241Z,18.81
2019-04-21T18:41:34.601Z,18.79
2019-04-21T18:44:48.537Z,18.72
2019-04-21T18:47:09.571Z,18.63
2019-04-21T18:49:44.116Z,18.60
2019-04-21T18:52:32.123Z,18.55
2019-04-21T18:55:05.225Z,18.47
2019-04-21T18:57:30.939Z,18.42
2019-04-21T18:59:53.225Z,18.37
2019-04-21T19:02:23.983Z,18.31
2019-04-21T19:04:58.182Z,18.17
2019-04-21T19:07:37.867Z,18.26
2019-04-21T19:10:26.642Z,18.22
2019-04-21T19:13:27.955Z,18.17
2019-04-21T19:15:06.710Z,18.13
2019-04-21T19:20:18.038Z,18.01
2019-04-21T19:22:41.593Z,17.94
2019-04-21T19:25:09.956Z,17.84
2019-04-21T19:27:36.845Z,17.79
2019-04-21T19:32:39.402Z,17.66
2019-04-21T19:34:58.240Z,17.65
2019-04-21T19:37:26.827Z,17.58
2019-04-21T19:40:07.185Z,17.51
2019-04-21T19:42:36.977Z,17.43
2019-04-21T19:45:13.916Z,17.33
2019-04-21T19:47:47.362Z,17.25
2019-04-21T19:50:12.165Z,17.15
2019-04-21T19:52:36.585Z,17.04
2019-04-21T19:54:54.995Z,16.95
2019-04-21T19:57:25.099Z,16.88
2019-04-21T19:59:58.528Z,16.80
2019-04-21T20:02:24.702Z,16.71
2019-04-21T20:05:01.508Z,16.61
2019-04-21T20:07:41.867Z,16.50
2019-04-21T20:10:14.319Z,16.38
2019-04-21T20:13:03.788Z,16.26
2019-04-21T20:15:20.307Z,16.19
2019-04-21T20:17:42.268Z,16.09
2019-04-21T20:19:56.181Z,16.03
2019-04-21T20:22:32.693Z,15.92
2019-04-21T20:25:02.329Z,15.84
2019-04-21T20:27:36.203Z,15.73
2019-04-21T20:30:15.811Z,15.65
2019-04-21T20:32:45.301Z,15.62
2019-04-21T20:35:17.014Z,15.57
2019-04-21T20:37:42.381Z,15.47
2019-04-21T20:40:02.233Z,15.37
2019-04-21T20:42:38.929Z,15.34
2019-04-21T20:45:28.836Z,15.30
2019-04-21T20:47:35.588Z,15.22
2019-04-21T20:50:08.155Z,15.17
2019-04-21T20:52:48.080Z,15.12
2019-04-21T20:55:04.805Z,15.02
2019-04-21T20:57:41.041Z,14.96
2019-04-21T21:00:16.913Z,14.88
2019-04-21T21:02:46.847Z,14.81
2019-04-21T21:05:05.261Z,14.76
2019-04-21T21:07:44.377Z,14.71
2019-04-21T21:10:16.642Z,14.64
2019-04-21T21:12:51.141Z,14.55
2019-04-21T21:15:07.940Z,14.50
2019-04-21T21:17:54.959Z,14.43
2019-04-21T21:20:23.183Z,14.38
2019-04-21T21:22:43.940Z,14.31
2019-04-21T21:25:21.337Z,14.28
2019-04-21T21:27:41.793Z,14.21
2019-04-21T21:30:17.477Z,14.15
2019-04-21T21:32:52.441Z,14.10
2019-04-21T21:35:13.464Z,14.04
2019-04-21T21:37:49.255Z,14.01
2019-04-21T21:40:26.050Z,13.97
2019-04-21T21:42:35.352Z,13.91
2019-04-21T21:45:04.862Z,13.85
2019-04-21T21:47:48.609Z,13.78
2019-04-21T21:50:11.253Z,13.72
2019-04-21T21:52:45.191Z,13.67
2019-04-21T21:55:01.601Z,13.63
2019-04-21T21:57:34.157Z,13.62
2019-04-21T22:00:04.668Z,13.58
2019-04-21T22:02:39.782Z,13.55
2019-04-21T22:05:07.727Z,13.52
2019-04-21T22:07:32.953Z,13.40
2019-04-21T22:10:02.175Z,13.33
2019-04-21T22:12:41.326Z,13.24
2019-04-21T22:15:02.410Z,13.19
2019-04-21T22:17:44.604Z,13.17
2019-04-21T22:20:22.529Z,13.11
2019-04-21T22:22:42.631Z,13.04
2019-04-21T22:25:09.639Z,12.97
2019-04-21T22:27:32.801Z,12.92
2019-04-21T22:30:06.548Z,12.86
2019-04-21T22:32:34.527Z,12.84
2019-04-21T22:35:08.776Z,12.75
2019-04-21T22:37:43.692Z,12.69
2019-04-21T22:40:15.629Z,12.65
2019-04-21T22:42:40.140Z,12.60
2019-04-21T22:45:02.589Z,12.54
2019-04-21T22:47:34.542Z,12.49
2019-04-21T22:50:02.501Z,12.45
2019-04-21T22:52:32.358Z,12.40
2019-04-21T22:55:08.189Z,12.34
2019-04-21T22:57:37.821Z,12.29
2019-04-21T23:00:03.904Z,12.23
2019-04-21T23:02:53.951Z,12.19
2019-04-21T23:05:27.950Z,12.12
2019-04-21T23:07:58.147Z,12.08
2019-04-21T23:10:23.262Z,12.04
2019-04-21T23:12:52.156Z,12.01
2019-04-21T23:15:24.638Z,11.98
2019-04-21T23:18:08.033Z,11.89
2019-04-21T23:20:39.589Z,11.83
2019-04-21T23:23:12.109Z,11.79
2019-04-21T23:25:36.265Z,11.77
2019-04-21T23:28:05.133Z,11.71
2019-04-21T23:30:45.887Z,11.66
2019-04-21T23:33:02.381Z,11.62
2019-04-21T23:35:30.466Z,11.59
2019-04-21T23:38:00.470Z,11.58
2019-04-21T23:40:26.986Z,11.55
2019-04-21T23:42:55.192Z,11.51
2019-04-21T23:45:30.233Z,11.47
2019-04-21T23:48:10.771Z,11.45
2019-04-21T23:50:34.075Z,11.43
2019-04-21T23:52:55.324Z,11.37
2019-04-21T23:55:25.239Z,11.34
2019-04-21T23:58:05.000Z,11.30
